Time;durP1;ratioP1;P1;durP2;ratioP2;P2;SDS_P1;SDS_P2;PMS_P1;PMS_P2;Temp;Humidity;BMP_temperature;BMP_pressure;BME280_temperature;BME280_humidity;BME280_pressure;Samples;Min_cycle;Max_cycle;Signal;HPM_P1;HPM_P2
2022/07/07 00:00:54;;;;;;;4.90;1.30;;;23.30;56.40;;;;;;5037176;28;20115;-62
2022/07/07 00:03:19;;;;;;;3.67;1.25;;;23.30;56.60;;;;;;5034738;28;20037;-62
2022/07/07 00:05:45;;;;;;;4.68;1.35;;;23.20;56.40;;;;;;5034614;28;20047;-62
2022/07/07 00:08:11;;;;;;;1.85;1.20;;;23.20;56.50;;;;;;5034854;28;20025;-63
2022/07/07 00:10:36;;;;;;;2.75;1.67;;;23.20;56.60;;;;;;5021740;28;20083;-64
2022/07/07 00:13:02;;;;;;;5.65;1.60;;;23.20;56.60;;;;;;5021702;28;20096;-63
2022/07/07 00:15:27;;;;;;;2.15;1.45;;;23.10;56.60;;;;;;5038229;28;20029;-63
2022/07/07 00:17:53;;;;;;;2.65;1.40;;;23.20;56.50;;;;;;5037993;28;20068;-62
2022/07/07 00:20:18;;;;;;;2.63;1.40;;;23.10;56.50;;;;;;5034121;28;20049;-64
2022/07/07 00:22:44;;;;;;;2.95;1.23;;;23.10;56.40;;;;;;5041430;28;20650;-63
2022/07/07 00:25:09;;;;;;;3.60;1.45;;;23.10;56.50;;;;;;5043190;28;20124;-63
2022/07/07 00:27:35;;;;;;;3.50;1.35;;;23.00;56.60;;;;;;5039430;28;20021;-62
2022/07/07 00:30:01;;;;;;;2.75;1.40;;;23.00;56.50;;;;;;5038522;28;20388;-64
2022/07/07 00:32:26;;;;;;;1.27;0.95;;;23.00;57.20;;;;;;5041029;28;20124;-63
2022/07/07 00:34:52;;;;;;;2.75;1.05;;;23.00;56.70;;;;;;5038468;28;20120;-63
2022/07/07 00:37:17;;;;;;;2.63;1.10;;;22.90;56.60;;;;;;5039836;28;20041;-62
2022/07/07 00:39:43;;;;;;;3.35;1.20;;;22.90;56.80;;;;;;5025328;28;20354;-62
2022/07/07 00:42:13;;;;;;;3.90;1.17;;;22.80;56.70;;;;;;5040505;28;20437;-63
2022/07/07 00:44:39;;;;;;;3.85;1.50;;;22.80;56.70;;;;;;5020945;28;20037;-63
2022/07/07 00:47:04;;;;;;;2.20;1.23;;;22.80;56.70;;;;;;5041515;28;20056;-62
2022/07/07 00:49:31;;;;;;;3.75;1.40;;;22.80;56.70;;;;;;5020258;28;20453;-61
2022/07/07 00:51:57;;;;;;;3.53;1.10;;;22.80;57.10;;;;;;5043116;28;20021;-62
2022/07/07 00:54:23;;;;;;;4.15;1.50;;;22.80;56.80;;;;;;5022428;28;20039;-61
2022/07/07 00:56:48;;;;;;;3.03;1.20;;;22.70;56.80;;;;;;5038462;28;20147;-62
2022/07/07 00:59:14;;;;;;;3.03;1.00;;;22.70;56.70;;;;;;5036794;28;20398;-63
2022/07/07 01:01:40;;;;;;;6.82;1.35;;;22.70;56.70;;;;;;5035043;28;20032;-64
2022/07/07 01:04:07;;;;;;;2.28;1.15;;;22.70;56.80;;;;;;5034591;28;20557;-63
2022/07/07 01:06:32;;;;;;;1.13;0.80;;;22.60;56.80;;;;;;5037516;28;20047;-63
2022/07/07 01:08:58;;;;;;;3.63;1.20;;;22.60;56.90;;;;;;5040441;28;20025;-64
2022/07/07 01:11:24;;;;;;;2.53;1.10;;;22.60;57.00;;;;;;5021191;28;20394;-62
2022/07/07 01:13:49;;;;;;;2.00;0.90;;;22.50;57.00;;;;;;5039761;28;20025;-64
2022/07/07 01:16:15;;;;;;;1.75;1.10;;;22.50;57.10;;;;;;5033680;28;20048;-64
2022/07/07 01:18:41;;;;;;;2.92;1.15;;;22.50;57.10;;;;;;5041207;28;20092;-62
2022/07/07 01:21:07;;;;;;;3.00;1.00;;;22.50;57.20;;;;;;5036851;28;20026;-64
2022/07/07 01:23:32;;;;;;;1.58;0.82;;;22.50;57.10;;;;;;5023360;28;20044;-62
2022/07/07 01:25:58;;;;;;;2.22;1.00;;;22.50;57.30;;;;;;5037596;28;20021;-64
2022/07/07 01:28:23;;;;;;;1.80;0.98;;;22.40;57.30;;;;;;5039407;28;20033;-64
2022/07/07 01:30:49;;;;;;;3.75;0.90;;;22.40;57.40;;;;;;5036784;28;20457;-62
2022/07/07 01:33:17;;;;;;;4.00;1.10;;;22.40;57.50;;;;;;5038689;28;20075;-64
2022/07/07 01:35:43;;;;;;;2.17;0.85;;;22.40;57.50;;;;;;5039770;28;20576;-62
2022/07/07 01:38:08;;;;;;;3.45;1.08;;;22.40;57.60;;;;;;5039154;28;20121;-62
2022/07/07 01:40:34;;;;;;;1.98;1.23;;;22.30;57.50;;;;;;5022696;28;20068;-63
2022/07/07 01:42:59;;;;;;;1.77;1.30;;;22.30;57.40;;;;;;5040991;28;20029;-63
2022/07/07 01:45:25;;;;;;;5.28;1.42;;;22.30;57.50;;;;;;5039265;28;20029;-63
2022/07/07 01:47:50;;;;;;;6.18;1.30;;;22.30;57.60;;;;;;5041308;28;20481;-63
2022/07/07 01:50:16;;;;;;;9.48;1.90;;;22.30;57.60;;;;;;5039361;28;20049;-63
2022/07/07 01:52:41;;;;;;;3.63;1.67;;;22.30;57.60;;;;;;5024013;28;20108;-64
2022/07/07 01:55:07;;;;;;;2.80;1.60;;;22.20;57.60;;;;;;5037855;28;20204;-62
2022/07/07 01:57:33;;;;;;;2.97;1.40;;;22.20;57.80;;;;;;5040764;28;20298;-62
2022/07/07 01:59:58;;;;;;;2.95;1.80;;;22.20;57.90;;;;;;5039083;28;20029;-62
2022/07/07 02:02:24;;;;;;;2.20;1.58;;;22.10;57.80;;;;;;5039607;28;20099;-64
2022/07/07 02:04:49;;;;;;;2.50;1.60;;;22.10;58.00;;;;;;5039463;28;20029;-61
2022/07/07 02:07:15;;;;;;;4.55;1.92;;;22.10;57.90;;;;;;5039446;28;20033;-63
2022/07/07 02:09:40;;;;;;;3.65;1.70;;;22.10;58.00;;;;;;5038496;28;20036;-63
2022/07/07 02:12:06;;;;;;;2.67;1.75;;;22.10;58.10;;;;;;5039561;28;20025;-62
2022/07/07 02:14:32;;;;;;;2.00;1.38;;;22.10;58.20;;;;;;5038300;28;20473;-62
2022/07/07 02:16:57;;;;;;;1.63;1.17;;;22.00;58.30;;;;;;5024564;28;20032;-64
2022/07/07 02:19:23;;;;;;;2.40;1.40;;;22.00;58.20;;;;;;5038427;28;20032;-62
2022/07/07 02:21:48;;;;;;;7.05;1.80;;;22.00;58.20;;;;;;5041366;28;20453;-64
2022/07/07 02:24:14;;;;;;;5.80;2.13;;;22.00;58.30;;;;;;5040051;28;20037;-64
2022/07/07 02:26:39;;;;;;;3.38;2.30;;;21.90;58.40;;;;;;5038026;28;20037;-62
2022/07/07 02:29:05;;;;;;;3.42;2.15;;;21.90;58.50;;;;;;5039801;28;20040;-63
2022/07/07 02:31:30;;;;;;;3.70;2.10;;;21.90;58.50;;;;;;5040425;28;20029;-63
2022/07/07 02:33:56;;;;;;;5.70;1.90;;;21.90;58.50;;;;;;5020245;28;20041;-63
2022/07/07 02:36:21;;;;;;;2.97;1.90;;;21.90;58.70;;;;;;5038572;28;20037;-62
2022/07/07 02:38:48;;;;;;;2.22;1.63;;;21.80;58.60;;;;;;5037460;28;20064;-63
2022/07/07 02:41:13;;;;;;;5.10;1.92;;;21.80;58.60;;;;;;5039631;28;20037;-62
2022/07/07 02:43:39;;;;;;;2.38;1.50;;;21.80;58.60;;;;;;5037927;28;20496;-63
2022/07/07 02:46:05;;;;;;;4.15;1.63;;;21.80;58.70;;;;;;5022658;28;20128;-62
2022/07/07 02:48:30;;;;;;;3.38;1.73;;;21.80;58.80;;;;;;5039569;28;20092;-63
2022/07/07 02:50:56;;;;;;;3.00;1.40;;;21.80;58.70;;;;;;5039568;28;20419;-63
2022/07/07 02:53:22;;;;;;;5.40;1.77;;;21.80;58.80;;;;;;5038669;28;20035;-62
2022/07/07 02:55:47;;;;;;;2.50;1.50;;;21.70;58.70;;;;;;5040566;28;20025;-65
2022/07/07 02:58:15;;;;;;;3.13;1.70;;;21.70;58.90;;;;;;5037752;28;20323;-63
2022/07/07 03:00:41;;;;;;;4.53;1.80;;;21.70;58.90;;;;;;5039556;28;20029;-62
2022/07/07 03:03:08;;;;;;;2.42;1.48;;;21.70;59.00;;;;;;5038713;28;20029;-62
2022/07/07 03:05:33;;;;;;;2.03;1.52;;;21.70;59.00;;;;;;5036472;28;20114;-61
2022/07/07 03:07:59;;;;;;;3.88;1.98;;;21.60;59.10;;;;;;5035824;28;20075;-63
2022/07/07 03:10:24;;;;;;;2.38;1.48;;;21.60;59.20;;;;;;5037458;28;20039;-63
2022/07/07 03:12:50;;;;;;;4.43;1.98;;;21.60;59.00;;;;;;5038483;28;20060;-63
2022/07/07 03:15:15;;;;;;;2.30;1.52;;;21.60;59.10;;;;;;5035456;28;20032;-64
2022/07/07 03:17:42;;;;;;;5.47;2.13;;;21.60;59.10;;;;;;5034769;28;20067;-62
2022/07/07 03:20:08;;;;;;;4.25;2.08;;;21.50;59.20;;;;;;5034437;28;20139;-62
2022/07/07 03:22:34;;;;;;;3.17;2.10;;;21.60;59.30;;;;;;5036553;28;20106;-63
2022/07/07 03:24:59;;;;;;;6.20;2.22;;;21.50;59.40;;;;;;5034952;28;20045;-62
2022/07/07 03:27:25;;;;;;;3.83;1.95;;;21.50;59.40;;;;;;5038101;28;20686;-61
2022/07/07 03:29:51;;;;;;;5.22;2.20;;;21.40;59.50;;;;;;5035866;28;20033;-64
2022/07/07 03:32:17;;;;;;;4.13;2.00;;;21.40;59.80;;;;;;5036539;28;20018;-63
2022/07/07 03:34:42;;;;;;;4.53;1.70;;;21.40;59.70;;;;;;5032341;28;20169;-62
2022/07/07 03:37:08;;;;;;;3.05;1.60;;;21.40;59.90;;;;;;5036653;28;20492;-63
2022/07/07 03:39:33;;;;;;;3.10;1.80;;;21.40;59.90;;;;;;5019692;28;20061;-63
2022/07/07 03:41:59;;;;;;;3.72;1.80;;;21.30;60.10;;;;;;5039859;28;20032;-64
2022/07/07 03:44:25;;;;;;;8.30;1.88;;;21.30;60.10;;;;;;5035575;28;20120;-62
2022/07/07 03:46:50;;;;;;;6.97;2.20;;;21.30;60.30;;;;;;5036571;28;20116;-62
2022/07/07 03:49:16;;;;;;;7.60;2.50;;;21.30;60.60;;;;;;5035272;28;20241;-63
2022/07/07 03:51:42;;;;;;;6.38;2.22;;;21.30;60.70;;;;;;5019387;28;20424;-61
2022/07/07 03:54:07;;;;;;;22.63;2.97;;;21.10;60.70;;;;;;5016584;28;20509;-61
2022/07/07 03:56:33;;;;;;;12.27;3.55;;;21.20;61.00;;;;;;5040411;28;20029;-61
2022/07/07 03:58:58;;;;;;;13.40;2.78;;;21.20;61.20;;;;;;5042267;28;20116;-63
2022/07/07 04:01:24;;;;;;;14.50;3.58;;;21.20;61.10;;;;;;5023578;28;20110;-62
2022/07/07 04:03:49;;;;;;;11.13;3.22;;;21.20;61.20;;;;;;5037764;28;20571;-63
2022/07/07 04:06:15;;;;;;;12.13;3.00;;;21.10;61.30;;;;;;5042620;28;20158;-62
2022/07/07 04:08:40;;;;;;;24.30;3.83;;;21.10;61.40;;;;;;5044084;28;20027;-64
2022/07/07 04:11:06;;;;;;;11.25;2.70;;;21.20;61.50;;;;;;5041571;28;20029;-62
2022/07/07 04:13:31;;;;;;;20.20;3.83;;;21.10;61.50;;;;;;5039157;28;20041;-63
2022/07/07 04:15:57;;;;;;;7.78;2.60;;;21.10;61.80;;;;;;5008716;28;20353;-64
2022/07/07 04:18:22;;;;;;;8.70;2.45;;;21.10;62.60;;;;;;5041944;28;20497;-61
2022/07/07 04:20:48;;;;;;;13.27;2.08;;;21.00;62.10;;;;;;5041100;28;20037;-64
2022/07/07 04:23:14;;;;;;;7.20;2.20;;;21.10;62.30;;;;;;5041824;28;20029;-64
2022/07/07 04:25:39;;;;;;;12.65;2.40;;;21.00;62.40;;;;;;5041611;28;20037;-63
2022/07/07 04:28:05;;;;;;;11.30;2.47;;;21.00;62.40;;;;;;5040341;28;20040;-63
2022/07/07 04:30:30;;;;;;;16.23;2.97;;;20.90;62.50;;;;;;5041165;28;20090;-61
2022/07/07 04:32:56;;;;;;;35.67;5.18;;;20.90;62.60;;;;;;5041254;28;20039;-63
2022/07/07 04:35:21;;;;;;;20.15;3.53;;;21.00;62.80;;;;;;5037776;28;20033;-63
2022/07/07 04:37:46;;;;;;;19.58;3.78;;;20.90;62.90;;;;;;5042758;28;20033;-64
2022/07/07 04:40:12;;;;;;;19.27;3.75;;;20.90;63.00;;;;;;5038827;28;20528;-63
2022/07/07 04:42:38;;;;;;;15.60;3.13;;;20.90;63.00;;;;;;5038604;28;20136;-63
2022/07/07 04:45:03;;;;;;;19.77;3.35;;;20.90;63.10;;;;;;5040421;28;20110;-62
2022/07/07 04:47:29;;;;;;;19.42;2.90;;;20.90;63.10;;;;;;5041721;28;20575;-62
2022/07/07 04:49:54;;;;;;;17.00;3.03;;;20.80;63.10;;;;;;5037539;28;20107;-63
2022/07/07 04:52:20;;;;;;;18.05;2.97;;;20.80;63.20;;;;;;5040918;28;20380;-63
2022/07/07 04:54:45;;;;;;;19.00;2.50;;;20.80;63.30;;;;;;5022765;28;20689;-63
2022/07/07 04:57:11;;;;;;;13.77;2.65;;;20.80;63.40;;;;;;5040107;28;20479;-64
2022/07/07 04:59:36;;;;;;;13.00;2.60;;;20.80;63.50;;;;;;5038879;28;20047;-63
2022/07/07 05:02:02;;;;;;;18.15;3.13;;;20.80;63.60;;;;;;5041213;28;20025;-63
2022/07/07 05:04:28;;;;;;;14.90;3.15;;;20.80;63.70;;;;;;5039516;28;20099;-63
2022/07/07 05:06:53;;;;;;;16.80;3.15;;;20.70;63.70;;;;;;5040051;28;20250;-62
2022/07/07 05:09:19;;;;;;;10.25;2.53;;;20.70;63.80;;;;;;5037662;28;20451;-61
2022/07/07 05:11:44;;;;;;;8.77;2.17;;;20.70;64.10;;;;;;5041695;28;20557;-63
2022/07/07 05:14:10;;;;;;;9.95;2.40;;;20.70;64.20;;;;;;5042555;28;20095;-62
2022/07/07 05:16:35;;;;;;;6.60;2.60;;;20.70;64.30;;;;;;5025029;28;20394;-63
2022/07/07 05:19:01;;;;;;;10.65;2.47;;;20.70;64.40;;;;;;5040743;28;20501;-62
2022/07/07 05:21:26;;;;;;;7.32;2.22;;;20.60;64.40;;;;;;5023844;28;20033;-62
2022/07/07 05:23:52;;;;;;;10.88;2.75;;;20.60;64.50;;;;;;5042738;28;20029;-62
2022/07/07 05:26:17;;;;;;;3.95;1.85;;;20.60;64.70;;;;;;5041920;28;20032;-62
2022/07/07 05:28:43;;;;;;;9.77;2.22;;;20.60;65.00;;;;;;5041122;28;20029;-63
2022/07/07 05:31:12;;;;;;;3.28;1.85;;;20.60;65.10;;;;;;5040703;28;20033;-64
2022/07/07 05:33:38;;;;;;;5.47;2.15;;;20.60;65.20;;;;;;5019866;28;20032;-62
2022/07/07 05:36:04;;;;;;;7.05;1.85;;;20.50;65.20;;;;;;5036576;28;20033;-62
2022/07/07 05:38:30;;;;;;;8.88;2.40;;;20.50;65.30;;;;;;5016360;28;20044;-62
2022/07/07 05:40:55;;;;;;;4.78;1.90;;;20.40;65.50;;;;;;5022918;28;20090;-63
2022/07/07 05:43:21;;;;;;;7.20;2.25;;;20.40;65.60;;;;;;5039182;28;20034;-62
2022/07/07 05:45:46;;;;;;;5.53;2.03;;;20.40;65.90;;;;;;5037638;28;20143;-62
2022/07/07 05:48:12;;;;;;;6.72;2.17;;;20.40;65.90;;;;;;5037821;28;20037;-63
2022/07/07 05:50:37;;;;;;;8.13;1.92;;;20.30;65.80;;;;;;5019621;28;20021;-63
2022/07/07 05:53:03;;;;;;;3.40;1.88;;;20.30;65.90;;;;;;5031829;28;20040;-63
2022/07/07 05:55:28;;;;;;;9.35;2.55;;;20.30;65.90;;;;;;5020919;28;20025;-63
2022/07/07 05:57:54;;;;;;;5.93;2.30;;;20.30;65.90;;;;;;5034465;28;20624;-64
2022/07/07 06:00:20;;;;;;;4.00;2.00;;;20.40;65.90;;;;;;5034324;28;20033;-63
2022/07/07 06:02:45;;;;;;;8.85;2.17;;;20.40;65.90;;;;;;5039448;28;20036;-63
2022/07/07 06:05:11;;;;;;;26.13;4.65;;;20.40;66.10;;;;;;5034880;28;20505;-62
2022/07/07 06:07:37;;;;;;;18.30;3.50;;;20.40;66.30;;;;;;5021796;28;20033;-64
2022/07/07 06:10:03;;;;;;;36.20;4.80;;;20.30;66.50;;;;;;5042621;28;20032;-65
2022/07/07 06:12:28;;;;;;;52.83;5.45;;;20.20;66.60;;;;;;5040853;28;20191;-63
2022/07/07 06:14:54;;;;;;;91.70;10.07;;;20.20;66.70;;;;;;5034973;28;20043;-63
2022/07/07 06:17:20;;;;;;;40.38;4.53;;;20.20;66.80;;;;;;5022870;28;20428;-64
2022/07/07 06:19:45;;;;;;;46.45;6.40;;;20.20;66.70;;;;;;5012144;28;20053;-64
2022/07/07 06:22:11;;;;;;;41.25;5.45;;;20.20;66.80;;;;;;5033356;28;20017;-62
2022/07/07 06:24:36;;;;;;;20.15;3.83;;;20.10;66.70;;;;;;5020304;28;20065;-64
2022/07/07 06:27:02;;;;;;;31.92;4.18;;;20.10;66.50;;;;;;5033145;28;20053;-63
2022/07/07 06:29:27;;;;;;;26.77;3.75;;;20.10;66.60;;;;;;5033196;28;20105;-63
2022/07/07 06:31:53;;;;;;;51.65;6.05;;;20.10;66.60;;;;;;5037228;28;20028;-65
2022/07/07 06:34:18;;;;;;;35.08;5.82;;;20.10;66.50;;;;;;5032854;28;20041;-63
2022/07/07 06:36:44;;;;;;;37.72;5.00;;;20.10;66.50;;;;;;5036313;28;20045;-61
2022/07/07 06:39:09;;;;;;;41.33;4.80;;;20.00;66.30;;;;;;5034225;28;20037;-62
2022/07/07 06:41:38;;;;;;;38.72;4.45;;;20.10;67.10;;;;;;5034453;28;20070;-63
2022/07/07 06:44:04;;;;;;;29.35;4.38;;;20.10;66.40;;;;;;5036510;28;20057;-63
2022/07/07 06:46:30;;;;;;;29.33;4.75;;;20.00;66.30;;;;;;5036468;28;20035;-62
2022/07/07 06:49:52;;;;;;;23.45;4.13;;;20.00;66.00;;;;;;5033995;28;20503;-62
2022/07/07 06:52:17;;;;;;;36.30;5.20;;;20.00;65.80;;;;;;5029081;28;20044;-62
2022/07/07 06:54:43;;;;;;;43.60;4.95;;;20.00;65.50;;;;;;5036490;28;20029;-62
2022/07/07 06:57:08;;;;;;;24.10;3.90;;;20.00;65.50;;;;;;5035063;28;20339;-63
2022/07/07 06:59:34;;;;;;;25.85;4.35;;;20.00;65.60;;;;;;5018794;28;20504;-62
2022/07/07 07:02:00;;;;;;;40.92;5.50;;;20.00;65.40;;;;;;5036933;28;20096;-62
2022/07/07 07:04:26;;;;;;;35.35;5.55;;;20.10;65.10;;;;;;5030864;28;20060;-63
2022/07/07 07:06:51;;;;;;;38.92;5.45;;;20.00;65.00;;;;;;5027190;28;20442;-62
2022/07/07 07:09:17;;;;;;;35.80;4.65;;;20.10;64.90;;;;;;5033800;28;20055;-62
2022/07/07 07:11:42;;;;;;;25.02;4.38;;;20.10;64.90;;;;;;5034818;28;22242;-62
2022/07/07 07:14:08;;;;;;;39.25;5.15;;;20.10;65.30;;;;;;4999420;28;20170;-62
2022/07/07 07:16:34;;;;;;;43.40;5.38;;;20.10;64.60;;;;;;5030649;28;20043;-63
2022/07/07 07:18:59;;;;;;;43.13;5.80;;;20.10;64.60;;;;;;5025918;28;20072;-62
2022/07/07 07:21:25;;;;;;;40.20;5.72;;;20.10;64.80;;;;;;5035003;28;20064;-62
2022/07/07 07:23:51;;;;;;;51.38;6.22;;;20.10;64.60;;;;;;5033446;28;20132;-62
2022/07/07 07:26:17;;;;;;;54.65;7.18;;;20.10;64.80;;;;;;5033372;28;20025;-63
2022/07/07 07:28:42;;;;;;;33.97;4.75;;;20.20;64.80;;;;;;5033192;28;20383;-62
2022/07/07 07:31:08;;;;;;;34.80;4.13;;;20.20;64.70;;;;;;5028336;28;20175;-62
2022/07/07 07:33:35;;;;;;;34.95;5.45;;;20.20;64.60;;;;;;5030657;28;20032;-63
2022/07/07 07:36:01;;;;;;;34.28;4.95;;;20.20;64.80;;;;;;5030513;28;20029;-61
2022/07/07 07:38:27;;;;;;;28.08;4.53;;;20.20;64.80;;;;;;5021847;28;20098;-62
2022/07/07 07:40:52;;;;;;;33.17;4.57;;;20.20;65.00;;;;;;5029347;28;20036;-63
2022/07/07 07:43:18;;;;;;;49.88;5.32;;;20.30;64.90;;;;;;5030907;28;20036;-61
2022/07/07 07:45:43;;;;;;;34.58;4.45;;;20.20;64.90;;;;;;5020886;28;20037;-62
2022/07/07 07:48:09;;;;;;;44.95;5.85;;;20.20;64.90;;;;;;5029040;28;20033;-62
2022/07/07 07:50:34;;;;;;;23.45;3.80;;;20.20;65.00;;;;;;5022432;28;20423;-62
2022/07/07 07:53:03;;;;;;;27.10;3.80;;;20.30;65.40;;;;;;5026903;28;20041;-62
2022/07/07 07:55:29;;;;;;;27.65;4.03;;;20.30;65.50;;;;;;5009534;28;21376;-62
2022/07/07 07:57:54;;;;;;;22.92;4.53;;;20.30;65.50;;;;;;5024316;28;20043;-61
2022/07/07 08:00:20;;;;;;;21.38;4.60;;;20.30;65.60;;;;;;4994909;28;20727;-62
2022/07/07 08:02:47;;;;;;;19.92;4.40;;;20.30;65.90;;;;;;5026226;28;20138;-63
2022/07/07 08:05:12;;;;;;;39.28;5.35;;;20.40;66.00;;;;;;5013346;28;20028;-61
2022/07/07 08:07:39;;;;;;;50.53;6.78;;;20.40;66.20;;;;;;5032746;28;20377;-62
2022/07/07 08:10:05;;;;;;;47.15;6.05;;;20.40;66.80;;;;;;5034823;28;20037;-63
2022/07/07 08:12:30;;;;;;;42.72;5.65;;;20.40;66.20;;;;;;4994257;28;20033;-62
2022/07/07 08:14:56;;;;;;;41.03;5.10;;;20.40;66.10;;;;;;5025461;28;20030;-62
2022/07/07 08:17:21;;;;;;;31.08;4.55;;;20.40;66.30;;;;;;5020063;28;20068;-63
2022/07/07 08:19:47;;;;;;;29.98;5.90;;;20.40;66.30;;;;;;5006830;28;20029;-64
2022/07/07 08:22:13;;;;;;;30.08;5.03;;;20.40;66.00;;;;;;5027535;28;20523;-63
2022/07/07 08:24:38;;;;;;;39.83;7.10;;;20.50;65.80;;;;;;5027965;28;20073;-63
2022/07/07 08:27:04;;;;;;;46.70;6.20;;;20.50;65.60;;;;;;5025413;28;20040;-62
2022/07/07 08:29:30;;;;;;;47.30;5.72;;;20.50;65.40;;;;;;5033679;28;20061;-63
2022/07/07 08:31:55;;;;;;;30.63;4.93;;;20.50;65.30;;;;;;5028347;28;20049;-62
2022/07/07 08:34:21;;;;;;;36.92;5.25;;;20.60;65.10;;;;;;5028538;28;20025;-62
2022/07/07 08:36:46;;;;;;;56.08;5.97;;;20.60;65.10;;;;;;5014182;28;20573;-62
2022/07/07 08:39:13;;;;;;;44.05;5.70;;;20.60;64.90;;;;;;5031025;28;20056;-62
2022/07/07 08:41:39;;;;;;;33.65;5.85;;;20.60;64.80;;;;;;5032281;28;20041;-62
2022/07/07 08:44:04;;;;;;;46.90;5.75;;;20.70;64.70;;;;;;5030526;28;20064;-62
2022/07/07 08:46:30;;;;;;;36.40;5.15;;;20.70;64.60;;;;;;5030924;28;20119;-62
2022/07/07 08:48:55;;;;;;;47.22;5.25;;;20.70;64.60;;;;;;5017344;28;20059;-63
2022/07/07 08:51:21;;;;;;;46.67;6.43;;;20.80;64.60;;;;;;5039228;28;20169;-63
2022/07/07 08:53:47;;;;;;;35.05;5.20;;;20.80;64.40;;;;;;5021433;28;20033;-62
2022/07/07 08:56:13;;;;;;;38.63;4.80;;;20.80;64.30;;;;;;5037256;28;20029;-62
2022/07/07 08:58:38;;;;;;;46.35;5.55;;;20.90;64.20;;;;;;5021068;28;20040;-63
2022/07/07 09:01:05;;;;;;;42.95;6.03;;;20.90;64.40;;;;;;5016070;28;20563;-63
2022/07/07 09:03:30;;;;;;;54.70;5.70;;;21.00;64.30;;;;;;5021187;28;20083;-62
2022/07/07 09:05:57;;;;;;;37.92;4.57;;;21.00;64.00;;;;;;5021623;28;20500;-63
2022/07/07 09:08:23;;;;;;;39.72;5.10;;;21.00;63.70;;;;;;5020018;28;20202;-63
2022/07/07 09:10:49;;;;;;;35.70;4.80;;;21.00;63.70;;;;;;5024531;28;20049;-63
2022/07/07 09:13:21;;;;;;;33.03;4.53;;;21.10;63.70;;;;;;5037296;28;20384;-62
2022/07/07 09:15:47;;;;;;;41.70;4.88;;;21.10;63.50;;;;;;5037772;28;20021;-62
2022/07/07 09:18:17;;;;;;;33.67;5.00;;;21.10;63.20;;;;;;5018704;28;20029;-63
2022/07/07 09:20:42;;;;;;;37.60;5.32;;;21.10;63.10;;;;;;5020653;28;20025;-63
2022/07/07 09:23:08;;;;;;;49.28;5.78;;;21.20;63.10;;;;;;5022009;28;20075;-62
2022/07/07 09:25:33;;;;;;;36.78;4.75;;;21.30;62.80;;;;;;5039076;28;20029;-62
2022/07/07 09:28:02;;;;;;;33.58;5.13;;;21.30;62.30;;;;;;5038140;28;20358;-64
2022/07/07 09:30:35;;;;;;;31.63;5.18;;;21.40;62.10;;;;;;5018475;28;20120;-62
2022/07/07 09:33:03;;;;;;;32.30;4.90;;;21.40;62.20;;;;;;5037678;28;20056;-63
2022/07/07 09:38:30;;;;;;;36.75;3.85;;;21.60;61.80;;;;;;5031099;28;20563;-62
2022/07/07 09:40:59;;;;;;;30.15;3.67;;;21.60;61.50;;;;;;5033223;28;20029;-62
2022/07/07 09:43:26;;;;;;;27.70;3.35;;;21.60;61.00;;;;;;5034340;28;20370;-63
2022/07/07 09:46:08;;;;;;;43.20;4.60;;;21.70;61.00;;;;;;5034096;28;20044;-63
2022/07/07 09:48:34;;;;;;;31.27;4.13;;;21.80;61.10;;;;;;5033704;28;20455;-63
2022/07/07 09:51:22;;;;;;;33.40;4.32;;;21.80;61.10;;;;;;4997918;28;20032;-64
2022/07/07 09:54:15;;;;;;;31.08;4.18;;;21.80;60.90;;;;;;5032581;28;20037;-62
2022/07/07 09:56:42;;;;;;;18.73;3.35;;;21.90;60.60;;;;;;5031674;28;20021;-64
2022/07/07 09:59:10;;;;;;;19.17;3.50;;;22.00;60.60;;;;;;5014803;28;20052;-63
2022/07/07 10:01:40;;;;;;;37.03;4.47;;;22.00;60.60;;;;;;5027071;28;20055;-63
2022/07/07 10:04:07;;;;;;;29.27;4.07;;;22.00;60.80;;;;;;5031527;28;20174;-62
2022/07/07 10:06:35;;;;;;;34.50;4.38;;;22.10;60.70;;;;;;5028567;28;20037;-62
2022/07/07 10:09:07;;;;;;;32.30;4.88;;;22.10;60.70;;;;;;5033018;28;20182;-63
2022/07/07 10:11:40;;;;;;;38.33;5.93;;;22.20;61.00;;;;;;5033294;28;20415;-63
2022/07/07 10:14:17;;;;;;;36.90;5.00;;;22.20;61.00;;;;;;5014061;28;20032;-62
2022/07/07 10:16:45;;;;;;;28.45;4.47;;;22.30;60.90;;;;;;5033020;28;20611;-63
2022/07/07 10:19:12;;;;;;;49.55;4.93;;;22.30;60.70;;;;;;5023319;28;20487;-63
2022/07/07 10:21:40;;;;;;;42.08;5.30;;;22.40;60.60;;;;;;5031216;28;20481;-63
2022/07/07 10:24:05;;;;;;;37.28;3.95;;;22.40;60.40;;;;;;5023802;28;20049;-64
2022/07/07 10:26:51;;;;;;;29.05;4.20;;;22.40;60.30;;;;;;5028920;28;20440;-63
2022/07/07 10:29:16;;;;;;;87.32;7.85;;;22.50;60.40;;;;;;5013389;28;20171;-64
2022/07/07 10:31:50;;;;;;;56.30;7.97;;;22.50;60.40;;;;;;5030332;28;20093;-62
2022/07/07 10:34:16;;;;;;;37.95;6.70;;;22.50;60.80;;;;;;5025246;28;20433;-64
2022/07/07 10:36:50;;;;;;;35.10;5.72;;;22.60;60.70;;;;;;5027696;28;20068;-63
2022/07/07 10:39:17;;;;;;;37.08;4.70;;;22.60;60.70;;;;;;5028667;28;20056;-62
2022/07/07 10:42:02;;;;;;;30.75;4.13;;;22.70;60.50;;;;;;5014010;28;20304;-63
2022/07/07 10:44:28;;;;;;;43.75;5.13;;;22.60;60.20;;;;;;5026995;28;20064;-63
2022/07/07 10:47:00;;;;;;;42.38;5.63;;;22.70;60.20;;;;;;5022305;28;20111;-63
2022/07/07 10:49:39;;;;;;;46.30;6.30;;;22.70;60.50;;;;;;5024951;28;20033;-63
2022/07/07 10:52:12;;;;;;;42.85;6.03;;;22.80;60.30;;;;;;5010881;28;20043;-62
2022/07/07 10:54:45;;;;;;;66.90;7.00;;;22.70;60.10;;;;;;5028584;28;20025;-63
2022/07/07 10:57:12;;;;;;;68.93;6.82;;;22.80;60.00;;;;;;5021449;28;20238;-62
2022/07/07 10:59:56;;;;;;;57.60;6.60;;;22.80;60.20;;;;;;5024237;28;20033;-63
2022/07/07 11:02:35;;;;;;;61.72;7.32;;;22.90;60.20;;;;;;5029463;28;20036;-63
2022/07/07 11:05:02;;;;;;;47.75;6.57;;;22.90;60.40;;;;;;5021785;28;20036;-63
2022/07/07 11:07:28;;;;;;;66.72;8.00;;;23.00;61.10;;;;;;5028395;28;20080;-64
2022/07/07 11:10:06;;;;;;;30.05;4.90;;;23.00;60.40;;;;;;5022798;28;20526;-63
2022/07/07 11:12:50;;;;;;;52.67;7.88;;;23.10;60.30;;;;;;5009696;28;20496;-63
2022/07/07 11:15:20;;;;;;;41.97;6.35;;;23.10;60.30;;;;;;5029026;28;20052;-62
2022/07/07 11:17:46;;;;;;;72.68;8.00;;;23.20;60.20;;;;;;5028010;28;20029;-62
2022/07/07 11:20:19;;;;;;;56.22;6.40;;;23.20;60.00;;;;;;5032887;28;20103;-62
2022/07/07 11:22:45;;;;;;;42.80;6.05;;;23.30;60.00;;;;;;5033760;28;20122;-61
2022/07/07 11:25:15;;;;;;;46.05;5.68;;;23.30;60.00;;;;;;5035274;28;20135;-64
2022/07/07 11:27:41;;;;;;;48.40;6.22;;;23.30;59.90;;;;;;5038290;28;20143;-63
2022/07/07 11:30:07;;;;;;;44.88;5.22;;;23.40;60.00;;;;;;5019072;28;20033;-63
2022/07/07 11:32:36;;;;;;;28.02;4.68;;;23.40;59.90;;;;;;5017231;28;20146;-63
2022/07/07 11:35:09;;;;;;;47.05;4.93;;;23.60;60.00;;;;;;5033602;28;20036;-64
2022/07/07 11:37:37;;;;;;;50.08;6.40;;;23.60;59.90;;;;;;5035790;28;20102;-63
2022/07/07 11:40:04;;;;;;;38.15;4.03;;;23.70;59.80;;;;;;5018106;28;20367;-63
2022/07/07 11:42:36;;;;;;;27.45;4.70;;;23.80;59.80;;;;;;5030690;28;20036;-65
2022/07/07 11:45:01;;;;;;;36.20;4.80;;;23.80;59.70;;;;;;5018147;28;20037;-62
2022/07/07 11:47:32;;;;;;;39.92;4.10;;;24.00;59.50;;;;;;5026417;28;20029;-62
2022/07/07 11:49:58;;;;;;;44.25;5.03;;;24.10;59.40;;;;;;5026394;28;20033;-64
2022/07/07 11:52:24;;;;;;;30.05;2.97;;;24.10;59.30;;;;;;5030894;28;20026;-64
2022/07/07 11:54:50;;;;;;;19.33;3.22;;;24.20;59.20;;;;;;5032481;28;20060;-62
2022/07/07 11:57:32;;;;;;;43.25;3.33;;;24.20;59.20;;;;;;5012182;28;20060;-63
2022/07/07 12:00:14;;;;;;;19.40;2.80;;;24.30;59.20;;;;;;5029350;28;20040;-62
2022/07/07 12:02:39;;;;;;;18.77;2.90;;;24.40;59.20;;;;;;5034828;28;20637;-60
2022/07/07 12:05:06;;;;;;;20.83;3.40;;;24.50;58.80;;;;;;5033467;28;20045;-61
2022/07/07 12:07:31;;;;;;;15.23;2.67;;;24.70;59.00;;;;;;5032524;28;20104;-62
2022/07/07 12:09:57;;;;;;;24.23;3.42;;;24.80;58.40;;;;;;5036047;28;20108;-61
2022/07/07 12:12:22;;;;;;;13.95;2.08;;;24.90;58.20;;;;;;5029220;28;20706;-62
2022/07/07 12:14:48;;;;;;;24.85;2.70;;;25.00;58.10;;;;;;5018846;28;20075;-61
2022/07/07 12:17:13;;;;;;;19.02;2.38;;;25.10;58.00;;;;;;5035983;28;20025;-62
2022/07/07 12:19:48;;;;;;;8.63;2.00;;;25.30;57.70;;;;;;5031971;28;20037;-61
2022/07/07 12:22:30;;;;;;;15.70;2.40;;;25.40;56.80;;;;;;5009670;28;20308;-63
2022/07/07 12:25:01;;;;;;;18.95;3.17;;;25.50;56.70;;;;;;5007201;28;20160;-63
2022/07/07 12:27:26;;;;;;;12.65;1.63;;;25.60;56.70;;;;;;5025386;28;20402;-64
2022/07/07 12:30:05;;;;;;;27.58;3.45;;;25.60;56.70;;;;;;5036406;28;20027;-62
2022/07/07 12:32:31;;;;;;;15.48;2.30;;;25.60;56.90;;;;;;5026151;28;21227;-62
2022/07/07 12:34:56;;;;;;;18.50;3.28;;;25.60;57.00;;;;;;5030227;28;20025;-62
2022/07/07 12:37:39;;;;;;;14.48;2.38;;;25.70;57.00;;;;;;5037287;28;20032;-63
2022/07/07 12:40:10;;;;;;;26.92;2.92;;;25.80;56.80;;;;;;5019902;28;20485;-61
2022/07/07 12:42:35;;;;;;;26.25;2.97;;;25.80;56.80;;;;;;5021945;28;20044;-61